Felderville, South Carolina
Current Conditions -  °F | °C
As of 8:53 AM on Friday 28 Nov 2014 (Local Time) from KOGB Reporting Station
Clear Clear  
Wind Chill: 31°   Ceiling: Unl
Heat Index: 38°   Visibility: 10mi
Dew Point: 25°   Wind: 10mph
Humidity: 60%   Direction: 20°NNE
Pressure: 30.4"   Gusts: NA
Location:  33.4623°N, 80.5654°W
Report Text: KOGB 281353Z AUTO 02009KT 10SM CLR 03/M04 A3040 RMK AO2 SLP293 T00331039
Loading
Personal Weather Stations






























Interactive Weather Map New forecast layout! Learn more

10-Day Weather Forecast

Advertisements
Track Severe Weather on mobile